sensor_id;sensor_type;location;lat;lon;timestamp;temperature;humidity
66271;DHT22;53063;39.614;8.814;2024-03-23T00:54:24;11.90;99.90
66271;DHT22;53063;39.614;8.814;2024-03-23T00:56:49;11.60;99.90
66271;DHT22;53063;39.614;8.814;2024-03-23T00:59:15;11.40;99.90
66271;DHT22;53063;39.614;8.814;2024-03-23T01:01:41;11.30;99.90
66271;DHT22;53063;39.614;8.814;2024-03-23T01:04:07;11.30;99.90
66271;DHT22;53063;39.614;8.814;2024-03-23T01:06:33;11.30;99.90
66271;DHT22;53063;39.614;8.814;2024-03-23T01:08:59;10.90;99.90
66271;DHT22;53063;39.614;8.814;2024-03-23T01:11:25;10.60;99.90
66271;DHT22;53063;39.614;8.814;2024-03-23T01:13:51;10.60;99.90
66271;DHT22;53063;39.614;8.814;2024-03-23T01:16:20;10.80;99.90
66271;DHT22;53063;39.614;8.814;2024-03-23T01:18:46;11.10;99.90
66271;DHT22;53063;39.614;8.814;2024-03-23T01:21:12;11.30;99.90
66271;DHT22;53063;39.614;8.814;2024-03-23T01:23:38;11.50;99.90
66271;DHT22;53063;39.614;8.814;2024-03-23T01:26:04;11.40;99.90
66271;DHT22;53063;39.614;8.814;2024-03-23T01:28:30;11.40;99.90
66271;DHT22;53063;39.614;8.814;2024-03-23T01:30:55;11.30;99.90
66271;DHT22;53063;39.614;8.814;2024-03-23T01:33:21;11.10;99.90
66271;DHT22;53063;39.614;8.814;2024-03-23T01:35:47;11.00;99.90
66271;DHT22;53063;39.614;8.814;2024-03-23T01:38:13;11.00;99.90
66271;DHT22;53063;39.614;8.814;2024-03-23T01:40:39;11.00;99.90
66271;DHT22;53063;39.614;8.814;2024-03-23T01:43:07;11.10;99.90
66271;DHT22;53063;39.614;8.814;2024-03-23T01:45:36;10.90;99.90
66271;DHT22;53063;39.614;8.814;2024-03-23T01:48:02;10.50;99.90
66271;DHT22;53063;39.614;8.814;2024-03-23T01:50:30;10.50;99.90
66271;DHT22;53063;39.614;8.814;2024-03-23T01:53:02;10.80;99.90
66271;DHT22;53063;39.614;8.814;2024-03-23T01:55:34;11.10;99.90
66271;DHT22;53063;39.614;8.814;2024-03-23T01:58:00;11.30;99.90
66271;DHT22;53063;39.614;8.814;2024-03-23T02:00:26;11.30;99.90
66271;DHT22;53063;39.614;8.814;2024-03-23T02:02:53;11.40;99.90
66271;DHT22;53063;39.614;8.814;2024-03-23T02:05:20;11.40;99.90
66271;DHT22;53063;39.614;8.814;2024-03-23T02:07:46;11.40;99.90
66271;DHT22;53063;39.614;8.814;2024-03-23T02:10:12;11.50;99.90
66271;DHT22;53063;39.614;8.814;2024-03-23T02:12:41;11.60;99.90
66271;DHT22;53063;39.614;8.814;2024-03-23T02:15:07;11.70;99.90
66271;DHT22;53063;39.614;8.814;2024-03-23T02:17:35;11.70;99.90
66271;DHT22;53063;39.614;8.814;2024-03-23T02:20:04;11.20;99.90
66271;DHT22;53063;39.614;8.814;2024-03-23T02:22:39;11.10;99.90
66271;DHT22;53063;39.614;8.814;2024-03-23T02:25:05;11.10;99.90
66271;DHT22;53063;39.614;8.814;2024-03-23T02:27:32;11.30;99.90
66271;DHT22;53063;39.614;8.814;2024-03-23T02:29:58;11.20;99.90
66271;DHT22;53063;39.614;8.814;2024-03-23T02:32:24;11.10;99.90
66271;DHT22;53063;39.614;8.814;2024-03-23T02:34:50;11.10;99.90
66271;DHT22;53063;39.614;8.814;2024-03-23T02:37:16;11.20;99.90
66271;DHT22;53063;39.614;8.814;2024-03-23T02:39:42;11.20;99.90
66271;DHT22;53063;39.614;8.814;2024-03-23T02:42:08;11.30;99.90
66271;DHT22;53063;39.614;8.814;2024-03-23T02:44:34;11.40;99.90
66271;DHT22;53063;39.614;8.814;2024-03-23T02:47:00;11.40;99.90
66271;DHT22;53063;39.614;8.814;2024-03-23T02:49:26;11.40;99.90
66271;DHT22;53063;39.614;8.814;2024-03-23T02:51:52;11.40;99.90
66271;DHT22;53063;39.614;8.814;2024-03-23T02:54:18;11.50;99.90
66271;DHT22;53063;39.614;8.814;2024-03-23T02:56:44;11.40;99.90
66271;DHT22;53063;39.614;8.814;2024-03-23T02:59:10;11.50;99.90
66271;DHT22;53063;39.614;8.814;2024-03-23T03:01:36;11.50;99.90
66271;DHT22;53063;39.614;8.814;2024-03-23T03:04:02;11.50;99.90
66271;DHT22;53063;39.614;8.814;2024-03-23T03:06:29;11.60;99.90
66271;DHT22;53063;39.614;8.814;2024-03-23T03:08:56;11.70;99.90
66271;DHT22;53063;39.614;8.814;2024-03-23T03:11:21;11.70;99.90
66271;DHT22;53063;39.614;8.814;2024-03-23T03:13:47;11.70;99.90
66271;DHT22;53063;39.614;8.814;2024-03-23T03:16:13;11.70;99.90
66271;DHT22;53063;39.614;8.814;2024-03-23T03:18:40;11.70;99.90
66271;DHT22;53063;39.614;8.814;2024-03-23T03:21:06;11.90;99.90
66271;DHT22;53063;39.614;8.814;2024-03-23T03:23:39;11.90;99.90
66271;DHT22;53063;39.614;8.814;2024-03-23T03:26:06;11.90;99.90
66271;DHT22;53063;39.614;8.814;2024-03-23T03:28:33;11.90;99.90
66271;DHT22;53063;39.614;8.814;2024-03-23T03:30:59;11.90;99.90
66271;DHT22;53063;39.614;8.814;2024-03-23T03:33:27;11.90;99.90
66271;DHT22;53063;39.614;8.814;2024-03-23T03:35:53;11.90;99.90
66271;DHT22;53063;39.614;8.814;2024-03-23T03:38:19;11.90;99.90
66271;DHT22;53063;39.614;8.814;2024-03-23T03:40:45;11.80;99.90
66271;DHT22;53063;39.614;8.814;2024-03-23T03:43:11;11.70;99.90
66271;DHT22;53063;39.614;8.814;2024-03-23T03:45:37;11.60;99.90
66271;DHT22;53063;39.614;8.814;2024-03-23T03:48:03;11.70;99.90
66271;DHT22;53063;39.614;8.814;2024-03-23T03:50:31;11.70;99.90
66271;DHT22;53063;39.614;8.814;2024-03-23T03:52:57;11.70;99.90
66271;DHT22;53063;39.614;8.814;2024-03-23T03:55:23;11.60;99.90
66271;DHT22;53063;39.614;8.814;2024-03-23T03:57:49;11.20;99.90
66271;DHT22;53063;39.614;8.814;2024-03-23T04:00:15;11.20;99.90
66271;DHT22;53063;39.614;8.814;2024-03-23T04:02:41;11.30;99.90
66271;DHT22;53063;39.614;8.814;2024-03-23T04:05:07;11.30;99.90
66271;DHT22;53063;39.614;8.814;2024-03-23T04:07:33;11.30;99.90
66271;DHT22;53063;39.614;8.814;2024-03-23T04:09:59;11.30;99.90
66271;DHT22;53063;39.614;8.814;2024-03-23T04:12:25;11.40;99.90
66271;DHT22;53063;39.614;8.814;2024-03-23T04:14:51;11.30;99.90
66271;DHT22;53063;39.614;8.814;2024-03-23T04:17:17;11.30;99.90
66271;DHT22;53063;39.614;8.814;2024-03-23T04:19:44;11.30;99.90
66271;DHT22;53063;39.614;8.814;2024-03-23T04:22:10;11.30;99.90
66271;DHT22;53063;39.614;8.814;2024-03-23T04:24:36;11.30;99.90
66271;DHT22;53063;39.614;8.814;2024-03-23T04:27:02;11.30;99.90
66271;DHT22;53063;39.614;8.814;2024-03-23T04:29:28;11.30;99.90
66271;DHT22;53063;39.614;8.814;2024-03-23T04:31:54;11.20;99.90
66271;DHT22;53063;39.614;8.814;2024-03-23T04:34:21;11.20;99.90
66271;DHT22;53063;39.614;8.814;2024-03-23T04:36:48;11.20;99.90
66271;DHT22;53063;39.614;8.814;2024-03-23T04:39:14;11.10;99.90
66271;DHT22;53063;39.614;8.814;2024-03-23T04:41:40;11.10;99.90
66271;DHT22;53063;39.614;8.814;2024-03-23T04:44:06;11.30;99.90
66271;DHT22;53063;39.614;8.814;2024-03-23T04:46:33;11.30;99.90
66271;DHT22;53063;39.614;8.814;2024-03-23T04:48:59;11.20;99.90
66271;DHT22;53063;39.614;8.814;2024-03-23T04:51:25;11.30;99.90
66271;DHT22;53063;39.614;8.814;2024-03-23T04:53:51;11.30;99.90
66271;DHT22;53063;39.614;8.814;2024-03-23T04:56:17;11.30;99.90
66271;DHT22;53063;39.614;8.814;2024-03-23T04:58:44;11.20;99.90
66271;DHT22;53063;39.614;8.814;2024-03-23T05:01:11;11.00;99.90
66271;DHT22;53063;39.614;8.814;2024-03-23T05:03:37;10.90;99.90
66271;DHT22;53063;39.614;8.814;2024-03-23T05:06:03;10.80;99.90
66271;DHT22;53063;39.614;8.814;2024-03-23T05:08:29;10.70;99.90
66271;DHT22;53063;39.614;8.814;2024-03-23T05:10:55;10.60;99.90
66271;DHT22;53063;39.614;8.814;2024-03-23T05:13:21;10.50;99.90
66271;DHT22;53063;39.614;8.814;2024-03-23T05:15:55;10.50;99.90
66271;DHT22;53063;39.614;8.814;2024-03-23T05:18:21;10.50;99.90
66271;DHT22;53063;39.614;8.814;2024-03-23T05:20:48;10.50;99.90
66271;DHT22;53063;39.614;8.814;2024-03-23T05:23:14;10.70;99.90
66271;DHT22;53063;39.614;8.814;2024-03-23T05:25:39;10.50;99.90
66271;DHT22;53063;39.614;8.814;2024-03-23T05:28:05;10.60;99.90
66271;DHT22;53063;39.614;8.814;2024-03-23T05:30:32;10.70;99.90
66271;DHT22;53063;39.614;8.814;2024-03-23T05:32:58;10.70;99.90
66271;DHT22;53063;39.614;8.814;2024-03-23T05:35:24;10.80;99.90
66271;DHT22;53063;39.614;8.814;2024-03-23T05:37:50;10.90;99.90
66271;DHT22;53063;39.614;8.814;2024-03-23T05:40:15;10.90;99.90
66271;DHT22;53063;39.614;8.814;2024-03-23T05:42:42;10.90;99.90
66271;DHT22;53063;39.614;8.814;2024-03-23T05:45:08;11.00;99.90
66271;DHT22;53063;39.614;8.814;2024-03-23T05:47:34;11.10;99.90
66271;DHT22;53063;39.614;8.814;2024-03-23T05:50:00;11.20;99.90
66271;DHT22;53063;39.614;8.814;2024-03-23T05:52:27;11.00;99.90
66271;DHT22;53063;39.614;8.814;2024-03-23T05:54:53;10.90;99.90
66271;DHT22;53063;39.614;8.814;2024-03-23T05:57:19;10.90;99.90
66271;DHT22;53063;39.614;8.814;2024-03-23T05:59:45;11.00;99.90
66271;DHT22;53063;39.614;8.814;2024-03-23T06:02:11;11.10;99.90
66271;DHT22;53063;39.614;8.814;2024-03-23T06:04:37;11.60;99.90
66271;DHT22;53063;39.614;8.814;2024-03-23T06:07:04;12.60;99.90
66271;DHT22;53063;39.614;8.814;2024-03-23T06:09:32;13.70;99.90
66271;DHT22;53063;39.614;8.814;2024-03-23T06:11:58;14.00;99.90
66271;DHT22;53063;39.614;8.814;2024-03-23T06:14:24;13.70;99.90
66271;DHT22;53063;39.614;8.814;2024-03-23T06:16:50;13.50;99.90
66271;DHT22;53063;39.614;8.814;2024-03-23T06:19:16;13.60;99.90
66271;DHT22;53063;39.614;8.814;2024-03-23T06:21:44;13.60;99.90
66271;DHT22;53063;39.614;8.814;2024-03-23T06:24:13;13.40;99.90
66271;DHT22;53063;39.614;8.814;2024-03-23T06:26:39;13.30;99.90
66271;DHT22;53063;39.614;8.814;2024-03-23T06:29:05;13.30;99.90
66271;DHT22;53063;39.614;8.814;2024-03-23T06:31:31;13.60;99.90
66271;DHT22;53063;39.614;8.814;2024-03-23T06:33:57;13.70;99.90
66271;DHT22;53063;39.614;8.814;2024-03-23T06:36:23;14.20;99.90
66271;DHT22;53063;39.614;8.814;2024-03-23T06:38:49;14.70;99.90
66271;DHT22;53063;39.614;8.814;2024-03-23T06:41:15;16.00;99.90
66271;DHT22;53063;39.614;8.814;2024-03-23T06:43:41;17.40;99.90
66271;DHT22;53063;39.614;8.814;2024-03-23T06:46:07;18.90;99.90
66271;DHT22;53063;39.614;8.814;2024-03-23T06:48:33;19.80;99.90
66271;DHT22;53063;39.614;8.814;2024-03-23T06:50:59;19.20;99.90
66271;DHT22;53063;39.614;8.814;2024-03-23T06:53:25;18.70;99.90
66271;DHT22;53063;39.614;8.814;2024-03-23T06:55:54;17.80;99.90
66271;DHT22;53063;39.614;8.814;2024-03-23T06:58:24;17.70;99.90
66271;DHT22;53063;39.614;8.814;2024-03-23T07:00:50;17.50;99.90
66271;DHT22;53063;39.614;8.814;2024-03-23T07:03:20;18.10;99.90
66271;DHT22;53063;39.614;8.814;2024-03-23T07:05:47;19.60;99.90
66271;DHT22;53063;39.614;8.814;2024-03-23T07:08:13;21.70;96.10
66271;DHT22;53063;39.614;8.814;2024-03-23T07:10:42;22.50;83.50
66271;DHT22;53063;39.614;8.814;2024-03-23T07:13:07;22.20;84.70
66271;DHT22;53063;39.614;8.814;2024-03-23T07:15:34;23.70;75.50
66271;DHT22;53063;39.614;8.814;2024-03-23T07:17:59;23.90;71.10
66271;DHT22;53063;39.614;8.814;2024-03-23T07:20:25;24.70;66.10
66271;DHT22;53063;39.614;8.814;2024-03-23T07:22:52;25.30;63.60
66271;DHT22;53063;39.614;8.814;2024-03-23T07:25:18;25.10;61.90
66271;DHT22;53063;39.614;8.814;2024-03-23T07:27:43;24.80;62.20
66271;DHT22;53063;39.614;8.814;2024-03-23T07:30:09;25.20;61.40
66271;DHT22;53063;39.614;8.814;2024-03-23T07:32:36;24.90;63.50
66271;DHT22;53063;39.614;8.814;2024-03-23T07:35:02;24.90;62.50
66271;DHT22;53063;39.614;8.814;2024-03-23T07:37:28;24.80;62.20
66271;DHT22;53063;39.614;8.814;2024-03-23T07:39:54;23.40;67.50
66271;DHT22;53063;39.614;8.814;2024-03-23T07:42:20;24.60;64.00
66271;DHT22;53063;39.614;8.814;2024-03-23T07:44:46;22.60;66.90
66271;DHT22;53063;39.614;8.814;2024-03-23T07:47:12;24.50;62.20
66271;DHT22;53063;39.614;8.814;2024-03-23T07:49:38;24.50;61.60
66271;DHT22;53063;39.614;8.814;2024-03-23T07:52:05;25.60;57.40
66271;DHT22;53063;39.614;8.814;2024-03-23T07:54:31;25.50;55.50
66271;DHT22;53063;39.614;8.814;2024-03-23T07:56:57;25.60;55.50
66271;DHT22;53063;39.614;8.814;2024-03-23T07:59:23;22.80;63.40
66271;DHT22;53063;39.614;8.814;2024-03-23T08:01:49;24.30;60.70
66271;DHT22;53063;39.614;8.814;2024-03-23T08:04:15;25.70;57.00
66271;DHT22;53063;39.614;8.814;2024-03-23T08:06:41;22.10;64.10
66271;DHT22;53063;39.614;8.814;2024-03-23T08:09:06;19.30;79.40
66271;DHT22;53063;39.614;8.814;2024-03-23T08:11:32;18.30;87.70
66271;DHT22;53063;39.614;8.814;2024-03-23T08:14:00;17.70;91.40
66271;DHT22;53063;39.614;8.814;2024-03-23T08:16:27;17.50;95.90
66271;DHT22;53063;39.614;8.814;2024-03-23T08:18:54;17.20;99.70
66271;DHT22;53063;39.614;8.814;2024-03-23T08:21:22;17.00;99.90
66271;DHT22;53063;39.614;8.814;2024-03-23T08:23:48;17.30;99.90
66271;DHT22;53063;39.614;8.814;2024-03-23T08:26:16;17.20;99.90
66271;DHT22;53063;39.614;8.814;2024-03-23T08:28:43;16.90;99.90
66271;DHT22;53063;39.614;8.814;2024-03-23T08:31:13;16.60;99.90
66271;DHT22;53063;39.614;8.814;2024-03-23T08:33:40;16.10;99.90
66271;DHT22;53063;39.614;8.814;2024-03-23T08:36:09;16.10;99.90
66271;DHT22;53063;39.614;8.814;2024-03-23T08:38:35;16.30;99.90
66271;DHT22;53063;39.614;8.814;2024-03-23T08:41:03;16.50;99.90
66271;DHT22;53063;39.614;8.814;2024-03-23T08:43:30;17.40;99.90
66271;DHT22;53063;39.614;8.814;2024-03-23T08:46:09;18.90;95.40
66271;DHT22;53063;39.614;8.814;2024-03-23T08:48:38;20.20;87.00
66271;DHT22;53063;39.614;8.814;2024-03-23T08:51:08;23.00;68.30
66271;DHT22;53063;39.614;8.814;2024-03-23T08:53:37;25.60;57.00
66271;DHT22;53063;39.614;8.814;2024-03-23T08:56:04;27.90;50.40
66271;DHT22;53063;39.614;8.814;2024-03-23T08:58:30;27.40;47.70
66271;DHT22;53063;39.614;8.814;2024-03-23T09:01:07;25.30;51.00
66271;DHT22;53063;39.614;8.814;2024-03-23T09:03:33;21.90;61.80
66271;DHT22;53063;39.614;8.814;2024-03-23T09:06:01;21.50;65.90
66271;DHT22;53063;39.614;8.814;2024-03-23T09:08:27;22.20;65.60
66271;DHT22;53063;39.614;8.814;2024-03-23T09:10:53;22.40;63.40
66271;DHT22;53063;39.614;8.814;2024-03-23T09:13:19;22.10;64.30
66271;DHT22;53063;39.614;8.814;2024-03-23T09:15:47;22.00;64.10
66271;DHT22;53063;39.614;8.814;2024-03-23T09:18:13;22.00;66.00
66271;DHT22;53063;39.614;8.814;2024-03-23T09:20:39;20.20;71.60
66271;DHT22;53063;39.614;8.814;2024-03-23T09:23:05;21.00;74.30
66271;DHT22;53063;39.614;8.814;2024-03-23T09:25:31;21.80;69.00
66271;DHT22;53063;39.614;8.814;2024-03-23T09:27:58;20.80;67.70
66271;DHT22;53063;39.614;8.814;2024-03-23T09:30:24;21.10;68.90
66271;DHT22;53063;39.614;8.814;2024-03-23T09:32:50;22.50;64.80
66271;DHT22;53063;39.614;8.814;2024-03-23T09:35:16;22.40;61.70
66271;DHT22;53063;39.614;8.814;2024-03-23T09:37:42;22.50;60.50
66271;DHT22;53063;39.614;8.814;2024-03-23T09:40:11;21.50;62.70
66271;DHT22;53063;39.614;8.814;2024-03-23T09:42:38;22.50;62.50
66271;DHT22;53063;39.614;8.814;2024-03-23T09:45:16;23.50;58.20
66271;DHT22;53063;39.614;8.814;2024-03-23T09:47:43;23.20;56.90
66271;DHT22;53063;39.614;8.814;2024-03-23T09:50:09;22.50;58.40
66271;DHT22;53063;39.614;8.814;2024-03-23T09:52:35;22.00;62.40
66271;DHT22;53063;39.614;8.814;2024-03-23T09:55:01;22.60;59.00
66271;DHT22;53063;39.614;8.814;2024-03-23T09:57:29;22.80;58.80
66271;DHT22;53063;39.614;8.814;2024-03-23T09:59:55;22.40;59.70
66271;DHT22;53063;39.614;8.814;2024-03-23T10:02:23;22.90;60.10
66271;DHT22;53063;39.614;8.814;2024-03-23T10:04:49;23.50;56.70
66271;DHT22;53063;39.614;8.814;2024-03-23T10:07:18;23.90;56.20
66271;DHT22;53063;39.614;8.814;2024-03-23T10:09:45;23.10;56.00
66271;DHT22;53063;39.614;8.814;2024-03-23T10:12:16;23.10;57.60
66271;DHT22;53063;39.614;8.814;2024-03-23T10:14:43;23.00;57.20
66271;DHT22;53063;39.614;8.814;2024-03-23T10:17:22;23.80;55.60
66271;DHT22;53063;39.614;8.814;2024-03-23T10:19:52;23.70;56.10
66271;DHT22;53063;39.614;8.814;2024-03-23T10:22:22;23.70;56.60
66271;DHT22;53063;39.614;8.814;2024-03-23T10:24:50;24.00;56.70
66271;DHT22;53063;39.614;8.814;2024-03-23T10:27:20;24.20;55.80
66271;DHT22;53063;39.614;8.814;2024-03-23T10:29:47;23.60;56.50
66271;DHT22;53063;39.614;8.814;2024-03-23T10:32:17;23.10;56.90
66271;DHT22;53063;39.614;8.814;2024-03-23T10:34:44;22.70;59.10
66271;DHT22;53063;39.614;8.814;2024-03-23T10:37:10;22.50;60.80
66271;DHT22;53063;39.614;8.814;2024-03-23T10:39:36;23.00;60.60
66271;DHT22;53063;39.614;8.814;2024-03-23T10:42:07;23.40;58.20
66271;DHT22;53063;39.614;8.814;2024-03-23T10:44:34;23.50;57.20
66271;DHT22;53063;39.614;8.814;2024-03-23T10:47:04;23.20;58.90
66271;DHT22;53063;39.614;8.814;2024-03-23T10:49:32;23.00;59.00
66271;DHT22;53063;39.614;8.814;2024-03-23T10:51:59;24.00;58.90
66271;DHT22;53063;39.614;8.814;2024-03-23T10:54:25;24.40;55.50
66271;DHT22;53063;39.614;8.814;2024-03-23T10:59:29;25.00;53.90
66271;DHT22;53063;39.614;8.814;2024-03-23T11:02:00;25.10;52.90
66271;DHT22;53063;39.614;8.814;2024-03-23T11:06:58;23.80;55.70
66271;DHT22;53063;39.614;8.814;2024-03-23T11:09:40;24.30;53.40
66271;DHT22;53063;39.614;8.814;2024-03-23T11:15:04;23.00;56.50
66271;DHT22;53063;39.614;8.814;2024-03-23T11:17:31;22.50;58.40
66271;DHT22;53063;39.614;8.814;2024-03-23T11:20:01;23.50;56.30
66271;DHT22;53063;39.614;8.814;2024-03-23T11:22:43;23.50;54.60
66271;DHT22;53063;39.614;8.814;2024-03-23T11:25:23;22.20;58.10
66271;DHT22;53063;39.614;8.814;2024-03-23T11:27:51;22.20;60.00
66271;DHT22;53063;39.614;8.814;2024-03-23T11:30:19;22.60;58.90
66271;DHT22;53063;39.614;8.814;2024-03-23T11:32:46;23.20;57.00
66271;DHT22;53063;39.614;8.814;2024-03-23T11:35:28;22.10;60.00
66271;DHT22;53063;39.614;8.814;2024-03-23T11:40:27;23.20;58.60
66271;DHT22;53063;39.614;8.814;2024-03-23T11:43:00;23.00;58.30
66271;DHT22;53063;39.614;8.814;2024-03-23T11:45:26;22.40;57.80
66271;DHT22;53063;39.614;8.814;2024-03-23T11:48:08;22.80;57.60
66271;DHT22;53063;39.614;8.814;2024-03-23T11:50:37;23.10;56.50
66271;DHT22;53063;39.614;8.814;2024-03-23T11:53:23;23.60;55.30
66271;DHT22;53063;39.614;8.814;2024-03-23T11:55:55;23.50;55.70
66271;DHT22;53063;39.614;8.814;2024-03-23T11:58:22;23.40;55.80
66271;DHT22;53063;39.614;8.814;2024-03-23T12:03:18;23.10;55.60
66271;DHT22;53063;39.614;8.814;2024-03-23T12:05:51;23.10;54.70
66271;DHT22;53063;39.614;8.814;2024-03-23T12:10:51;23.50;55.70
66271;DHT22;53063;39.614;8.814;2024-03-23T12:13:18;23.70;54.60
66271;DHT22;53063;39.614;8.814;2024-03-23T12:15:49;24.00;53.70
66271;DHT22;53063;39.614;8.814;2024-03-23T12:18:16;24.00;52.60
66271;DHT22;53063;39.614;8.814;2024-03-23T12:20:42;23.40;54.20
66271;DHT22;53063;39.614;8.814;2024-03-23T12:23:11;23.50;55.10
66271;DHT22;53063;39.614;8.814;2024-03-23T12:25:41;23.40;55.70
66271;DHT22;53063;39.614;8.814;2024-03-23T12:28:07;22.90;58.70
66271;DHT22;53063;39.614;8.814;2024-03-23T12:30:35;23.80;57.20
66271;DHT22;53063;39.614;8.814;2024-03-23T12:33:01;24.80;54.10
66271;DHT22;53063;39.614;8.814;2024-03-23T12:35:27;25.10;54.10
66271;DHT22;53063;39.614;8.814;2024-03-23T12:37:52;25.40;53.10
66271;DHT22;53063;39.614;8.814;2024-03-23T12:40:18;24.70;52.70
66271;DHT22;53063;39.614;8.814;2024-03-23T12:42:44;23.80;54.40
66271;DHT22;53063;39.614;8.814;2024-03-23T12:45:10;24.40;54.30
66271;DHT22;53063;39.614;8.814;2024-03-23T12:47:36;24.70;53.60
66271;DHT22;53063;39.614;8.814;2024-03-23T12:50:02;24.60;54.30
66271;DHT22;53063;39.614;8.814;2024-03-23T12:52:28;24.40;53.20
66271;DHT22;53063;39.614;8.814;2024-03-23T12:54:56;24.00;53.30
66271;DHT22;53063;39.614;8.814;2024-03-23T12:57:23;23.80;53.20
66271;DHT22;53063;39.614;8.814;2024-03-23T12:59:50;23.70;54.40
66271;DHT22;53063;39.614;8.814;2024-03-23T13:02:20;23.10;53.90
66271;DHT22;53063;39.614;8.814;2024-03-23T13:04:49;22.60;56.70
66271;DHT22;53063;39.614;8.814;2024-03-23T13:07:15;22.50;56.60
66271;DHT22;53063;39.614;8.814;2024-03-23T13:09:42;23.10;56.50
66271;DHT22;53063;39.614;8.814;2024-03-23T13:12:08;23.20;57.20
66271;DHT22;53063;39.614;8.814;2024-03-23T13:14:34;23.70;56.70
66271;DHT22;53063;39.614;8.814;2024-03-23T13:17:00;24.20;54.10
66271;DHT22;53063;39.614;8.814;2024-03-23T13:19:28;23.00;55.50
66271;DHT22;53063;39.614;8.814;2024-03-23T13:21:57;22.80;56.00
66271;DHT22;53063;39.614;8.814;2024-03-23T13:24:27;23.00;55.90
66271;DHT22;53063;39.614;8.814;2024-03-23T13:26:54;22.50;57.20
66271;DHT22;53063;39.614;8.814;2024-03-23T13:29:20;22.60;57.30
66271;DHT22;53063;39.614;8.814;2024-03-23T13:31:47;22.20;57.30
66271;DHT22;53063;39.614;8.814;2024-03-23T13:34:13;22.10;58.80
66271;DHT22;53063;39.614;8.814;2024-03-23T13:36:41;21.70;59.60
66271;DHT22;53063;39.614;8.814;2024-03-23T13:39:08;21.80;59.50
66271;DHT22;53063;39.614;8.814;2024-03-23T13:41:41;21.60;60.10
66271;DHT22;53063;39.614;8.814;2024-03-23T13:44:08;21.70;60.90
66271;DHT22;53063;39.614;8.814;2024-03-23T13:46:36;21.40;61.60
66271;DHT22;53063;39.614;8.814;2024-03-23T13:49:03;21.20;63.00
66271;DHT22;53063;39.614;8.814;2024-03-23T13:51:29;20.90;64.10
66271;DHT22;53063;39.614;8.814;2024-03-23T13:53:55;20.60;65.10
66271;DHT22;53063;39.614;8.814;2024-03-23T13:56:30;20.80;66.40
66271;DHT22;53063;39.614;8.814;2024-03-23T13:58:56;21.00;66.00
66271;DHT22;53063;39.614;8.814;2024-03-23T14:01:23;20.40;64.60
66271;DHT22;53063;39.614;8.814;2024-03-23T14:03:50;20.20;66.30
66271;DHT22;53063;39.614;8.814;2024-03-23T14:06:16;20.50;66.00
66271;DHT22;53063;39.614;8.814;2024-03-23T14:08:42;21.00;64.90
66271;DHT22;53063;39.614;8.814;2024-03-23T14:11:09;21.50;64.30
66271;DHT22;53063;39.614;8.814;2024-03-23T14:13:36;21.60;63.80
66271;DHT22;53063;39.614;8.814;2024-03-23T14:16:02;21.80;64.50
66271;DHT22;53063;39.614;8.814;2024-03-23T14:18:29;22.00;62.00
66271;DHT22;53063;39.614;8.814;2024-03-23T14:20:59;22.10;63.70
66271;DHT22;53063;39.614;8.814;2024-03-23T14:23:26;22.20;62.50
66271;DHT22;53063;39.614;8.814;2024-03-23T14:25:53;22.50;61.50
66271;DHT22;53063;39.614;8.814;2024-03-23T14:28:20;21.90;61.50
66271;DHT22;53063;39.614;8.814;2024-03-23T14:30:47;21.00;64.00
66271;DHT22;53063;39.614;8.814;2024-03-23T14:33:13;20.70;65.90
66271;DHT22;53063;39.614;8.814;2024-03-23T14:35:39;20.80;66.40
66271;DHT22;53063;39.614;8.814;2024-03-23T14:38:05;20.90;64.70
66271;DHT22;53063;39.614;8.814;2024-03-23T14:40:31;20.80;65.40
66271;DHT22;53063;39.614;8.814;2024-03-23T14:42:57;21.10;65.30
66271;DHT22;53063;39.614;8.814;2024-03-23T14:45:23;20.90;64.80
66271;DHT22;53063;39.614;8.814;2024-03-23T14:47:53;20.40;65.50
66271;DHT22;53063;39.614;8.814;2024-03-23T14:50:19;20.40;66.70
66271;DHT22;53063;39.614;8.814;2024-03-23T14:52:47;20.60;67.50
66271;DHT22;53063;39.614;8.814;2024-03-23T14:55:13;20.60;66.90
66271;DHT22;53063;39.614;8.814;2024-03-23T14:57:39;20.80;67.80
66271;DHT22;53063;39.614;8.814;2024-03-23T15:00:07;20.50;67.80
66271;DHT22;53063;39.614;8.814;2024-03-23T15:02:39;20.60;67.60
66271;DHT22;53063;39.614;8.814;2024-03-23T15:05:06;20.50;67.10
66271;DHT22;53063;39.614;8.814;2024-03-23T15:07:38;20.30;67.10
66271;DHT22;53063;39.614;8.814;2024-03-23T15:10:06;20.00;67.50
66271;DHT22;53063;39.614;8.814;2024-03-23T15:12:33;20.20;67.30
66271;DHT22;53063;39.614;8.814;2024-03-23T15:15:01;19.80;67.70
66271;DHT22;53063;39.614;8.814;2024-03-23T15:17:27;19.70;69.10
66271;DHT22;53063;39.614;8.814;2024-03-23T15:19:54;20.00;68.60
66271;DHT22;53063;39.614;8.814;2024-03-23T15:22:20;20.00;67.70
66271;DHT22;53063;39.614;8.814;2024-03-23T15:24:47;19.90;66.80
66271;DHT22;53063;39.614;8.814;2024-03-23T15:27:14;19.70;67.40
66271;DHT22;53063;39.614;8.814;2024-03-23T15:29:40;19.60;68.50
66271;DHT22;53063;39.614;8.814;2024-03-23T15:32:10;19.60;69.30
66271;DHT22;53063;39.614;8.814;2024-03-23T15:34:36;19.60;70.20
66271;DHT22;53063;39.614;8.814;2024-03-23T15:37:02;19.60;70.10
66271;DHT22;53063;39.614;8.814;2024-03-23T15:39:30;19.50;70.20
66271;DHT22;53063;39.614;8.814;2024-03-23T15:41:55;19.50;71.10
66271;DHT22;53063;39.614;8.814;2024-03-23T15:44:21;19.40;71.70
66271;DHT22;53063;39.614;8.814;2024-03-23T15:46:47;19.20;71.10
66271;DHT22;53063;39.614;8.814;2024-03-23T15:49:13;19.10;72.30
66271;DHT22;53063;39.614;8.814;2024-03-23T15:51:39;19.20;72.90
66271;DHT22;53063;39.614;8.814;2024-03-23T15:54:07;19.30;73.90
66271;DHT22;53063;39.614;8.814;2024-03-23T15:56:33;19.10;72.30
66271;DHT22;53063;39.614;8.814;2024-03-23T15:58:59;18.90;73.20
66271;DHT22;53063;39.614;8.814;2024-03-23T16:01:34;19.00;73.00
66271;DHT22;53063;39.614;8.814;2024-03-23T16:04:03;19.10;72.10
66271;DHT22;53063;39.614;8.814;2024-03-23T16:06:29;18.80;72.90
66271;DHT22;53063;39.614;8.814;2024-03-23T16:08:55;18.70;74.30
66271;DHT22;53063;39.614;8.814;2024-03-23T16:11:21;18.50;74.80
66271;DHT22;53063;39.614;8.814;2024-03-23T16:13:47;18.20;76.20
66271;DHT22;53063;39.614;8.814;2024-03-23T16:16:13;18.30;77.80
66271;DHT22;53063;39.614;8.814;2024-03-23T16:18:39;18.30;77.60
66271;DHT22;53063;39.614;8.814;2024-03-23T16:21:06;18.20;77.80
66271;DHT22;53063;39.614;8.814;2024-03-23T16:23:33;18.10;78.10
66271;DHT22;53063;39.614;8.814;2024-03-23T16:26:00;18.00;79.90
66271;DHT22;53063;39.614;8.814;2024-03-23T16:28:36;17.90;80.10
66271;DHT22;53063;39.614;8.814;2024-03-23T16:31:08;17.80;80.90
66271;DHT22;53063;39.614;8.814;2024-03-23T16:33:36;17.90;81.30
66271;DHT22;53063;39.614;8.814;2024-03-23T16:36:03;17.80;81.90
66271;DHT22;53063;39.614;8.814;2024-03-23T16:38:36;17.70;81.70